sensor_id;sensor_type;location;lat;lon;timestamp;P1;durP1;ratioP1;P2;durP2;ratioP2
75894;SDS011;64573;50.328;15.014;2023-04-15T00:02:19;2.00;;;1.80;;
75894;SDS011;64573;50.328;15.014;2023-04-15T00:04:45;2.50;;;2.30;;
75894;SDS011;64573;50.328;15.014;2023-04-15T00:07:12;2.30;;;1.42;;
75894;SDS011;64573;50.328;15.014;2023-04-15T00:09:38;2.08;;;1.77;;
75894;SDS011;64573;50.328;15.014;2023-04-15T00:12:04;1.30;;;1.20;;
75894;SDS011;64573;50.328;15.014;2023-04-15T00:14:29;2.38;;;1.63;;
75894;SDS011;64573;50.328;15.014;2023-04-15T00:16:55;2.08;;;1.40;;
75894;SDS011;64573;50.328;15.014;2023-04-15T00:19:21;1.83;;;1.55;;
75894;SDS011;64573;50.328;15.014;2023-04-15T00:24:17;1.73;;;1.63;;
75894;SDS011;64573;50.328;15.014;2023-04-15T00:26:42;4.70;;;1.60;;
75894;SDS011;64573;50.328;15.014;2023-04-15T00:29:07;1.75;;;1.42;;
75894;SDS011;64573;50.328;15.014;2023-04-15T00:31:33;1.98;;;1.83;;
75894;SDS011;64573;50.328;15.014;2023-04-15T00:33:58;3.13;;;1.70;;
75894;SDS011;64573;50.328;15.014;2023-04-15T00:36:24;2.08;;;1.67;;
75894;SDS011;64573;50.328;15.014;2023-04-15T00:38:50;1.70;;;1.27;;
75894;SDS011;64573;50.328;15.014;2023-04-15T00:41:15;1.70;;;1.60;;
75894;SDS011;64573;50.328;15.014;2023-04-15T00:43:43;1.80;;;1.33;;
75894;SDS011;64573;50.328;15.014;2023-04-15T00:46:08;3.25;;;1.58;;
75894;SDS011;64573;50.328;15.014;2023-04-15T00:48:35;2.35;;;1.90;;
75894;SDS011;64573;50.328;15.014;2023-04-15T00:51:01;1.90;;;1.70;;
75894;SDS011;64573;50.328;15.014;2023-04-15T00:53:26;2.00;;;1.75;;
75894;SDS011;64573;50.328;15.014;2023-04-15T00:55:51;2.00;;;1.80;;
75894;SDS011;64573;50.328;15.014;2023-04-15T00:58:18;2.42;;;1.98;;
75894;SDS011;64573;50.328;15.014;2023-04-15T01:00:43;3.90;;;2.05;;
75894;SDS011;64573;50.328;15.014;2023-04-15T01:03:10;2.47;;;2.05;;
75894;SDS011;64573;50.328;15.014;2023-04-15T01:05:35;1.80;;;1.50;;
75894;SDS011;64573;50.328;15.014;2023-04-15T01:08:01;2.05;;;1.70;;
75894;SDS011;64573;50.328;15.014;2023-04-15T01:10:26;3.70;;;1.80;;
75894;SDS011;64573;50.328;15.014;2023-04-15T01:12:52;2.33;;;1.83;;
75894;SDS011;64573;50.328;15.014;2023-04-15T01:15:17;2.85;;;1.90;;
75894;SDS011;64573;50.328;15.014;2023-04-15T01:17:44;3.35;;;2.22;;
75894;SDS011;64573;50.328;15.014;2023-04-15T01:20:10;2.97;;;2.65;;
75894;SDS011;64573;50.328;15.014;2023-04-15T01:22:36;2.45;;;2.20;;
75894;SDS011;64573;50.328;15.014;2023-04-15T01:25:06;2.10;;;1.80;;
75894;SDS011;64573;50.328;15.014;2023-04-15T01:27:36;2.35;;;1.88;;
75894;SDS011;64573;50.328;15.014;2023-04-15T01:30:04;2.45;;;1.73;;
75894;SDS011;64573;50.328;15.014;2023-04-15T01:32:30;2.78;;;1.90;;
75894;SDS011;64573;50.328;15.014;2023-04-15T01:34:55;2.97;;;2.40;;
75894;SDS011;64573;50.328;15.014;2023-04-15T01:37:21;2.80;;;2.30;;
75894;SDS011;64573;50.328;15.014;2023-04-15T01:39:46;4.05;;;2.30;;
75894;SDS011;64573;50.328;15.014;2023-04-15T01:42:12;3.90;;;2.95;;
75894;SDS011;64573;50.328;15.014;2023-04-15T01:44:37;4.95;;;3.17;;
75894;SDS011;64573;50.328;15.014;2023-04-15T01:47:02;7.82;;;4.38;;
75894;SDS011;64573;50.328;15.014;2023-04-15T01:49:27;7.13;;;4.50;;
75894;SDS011;64573;50.328;15.014;2023-04-15T01:51:53;7.82;;;4.93;;
75894;SDS011;64573;50.328;15.014;2023-04-15T01:54:18;8.18;;;4.80;;
75894;SDS011;64573;50.328;15.014;2023-04-15T01:56:44;9.15;;;5.47;;
75894;SDS011;64573;50.328;15.014;2023-04-15T01:59:09;13.75;;;5.93;;
75894;SDS011;64573;50.328;15.014;2023-04-15T02:01:35;8.25;;;4.63;;
75894;SDS011;64573;50.328;15.014;2023-04-15T02:04:00;4.32;;;2.80;;
75894;SDS011;64573;50.328;15.014;2023-04-15T02:06:25;5.05;;;3.03;;
75894;SDS011;64573;50.328;15.014;2023-04-15T02:08:52;6.00;;;3.58;;
75894;SDS011;64573;50.328;15.014;2023-04-15T02:11:17;5.50;;;3.72;;
75894;SDS011;64573;50.328;15.014;2023-04-15T02:13:43;4.93;;;3.42;;
75894;SDS011;64573;50.328;15.014;2023-04-15T02:18:39;4.03;;;2.75;;
75894;SDS011;64573;50.328;15.014;2023-04-15T02:21:04;5.93;;;3.30;;
75894;SDS011;64573;50.328;15.014;2023-04-15T02:23:31;4.57;;;2.63;;
75894;SDS011;64573;50.328;15.014;2023-04-15T02:25:56;3.67;;;2.70;;
75894;SDS011;64573;50.328;15.014;2023-04-15T02:28:21;3.53;;;2.58;;
75894;SDS011;64573;50.328;15.014;2023-04-15T02:30:50;3.13;;;2.60;;
75894;SDS011;64573;50.328;15.014;2023-04-15T02:33:16;4.45;;;3.08;;
75894;SDS011;64573;50.328;15.014;2023-04-15T02:35:42;4.82;;;2.95;;
75894;SDS011;64573;50.328;15.014;2023-04-15T02:38:09;3.45;;;2.75;;
75894;SDS011;64573;50.328;15.014;2023-04-15T02:40:35;5.28;;;3.00;;
75894;SDS011;64573;50.328;15.014;2023-04-15T02:43:01;6.38;;;3.15;;
75894;SDS011;64573;50.328;15.014;2023-04-15T02:45:26;4.72;;;3.33;;
75894;SDS011;64573;50.328;15.014;2023-04-15T02:47:52;4.75;;;3.80;;
75894;SDS011;64573;50.328;15.014;2023-04-15T02:50:17;4.63;;;3.53;;
75894;SDS011;64573;50.328;15.014;2023-04-15T02:52:43;5.25;;;3.90;;
75894;SDS011;64573;50.328;15.014;2023-04-15T02:55:08;7.00;;;4.33;;
75894;SDS011;64573;50.328;15.014;2023-04-15T02:57:34;7.00;;;4.10;;
75894;SDS011;64573;50.328;15.014;2023-04-15T03:00:04;5.78;;;4.32;;
75894;SDS011;64573;50.328;15.014;2023-04-15T03:02:36;5.35;;;4.00;;
75894;SDS011;64573;50.328;15.014;2023-04-15T03:05:02;6.60;;;4.63;;
75894;SDS011;64573;50.328;15.014;2023-04-15T03:07:29;6.82;;;5.03;;
75894;SDS011;64573;50.328;15.014;2023-04-15T03:09:55;7.47;;;5.30;;
75894;SDS011;64573;50.328;15.014;2023-04-15T03:12:20;8.48;;;5.70;;
75894;SDS011;64573;50.328;15.014;2023-04-15T03:14:45;9.18;;;6.47;;
75894;SDS011;64573;50.328;15.014;2023-04-15T03:17:11;10.25;;;7.07;;
75894;SDS011;64573;50.328;15.014;2023-04-15T03:19:36;10.55;;;7.40;;
75894;SDS011;64573;50.328;15.014;2023-04-15T03:22:01;13.10;;;8.93;;
75894;SDS011;64573;50.328;15.014;2023-04-15T03:24:27;13.05;;;8.18;;
75894;SDS011;64573;50.328;15.014;2023-04-15T03:26:53;15.38;;;9.73;;
75894;SDS011;64573;50.328;15.014;2023-04-15T03:29:19;14.27;;;10.05;;
75894;SDS011;64573;50.328;15.014;2023-04-15T03:31:44;13.63;;;8.77;;
75894;SDS011;64573;50.328;15.014;2023-04-15T03:34:10;13.77;;;9.30;;
75894;SDS011;64573;50.328;15.014;2023-04-15T03:36:35;14.15;;;9.25;;
75894;SDS011;64573;50.328;15.014;2023-04-15T03:39:00;13.27;;;9.05;;
75894;SDS011;64573;50.328;15.014;2023-04-15T03:41:26;12.98;;;8.95;;
75894;SDS011;64573;50.328;15.014;2023-04-15T03:43:52;13.88;;;9.27;;
75894;SDS011;64573;50.328;15.014;2023-04-15T03:46:18;14.30;;;8.63;;
75894;SDS011;64573;50.328;15.014;2023-04-15T03:48:43;14.18;;;9.25;;
75894;SDS011;64573;50.328;15.014;2023-04-15T03:51:09;13.60;;;8.98;;
75894;SDS011;64573;50.328;15.014;2023-04-15T03:53:34;14.32;;;9.15;;
75894;SDS011;64573;50.328;15.014;2023-04-15T03:56:00;14.35;;;8.15;;
75894;SDS011;64573;50.328;15.014;2023-04-15T03:58:26;14.10;;;9.23;;
75894;SDS011;64573;50.328;15.014;2023-04-15T04:00:51;13.75;;;9.43;;
75894;SDS011;64573;50.328;15.014;2023-04-15T04:03:17;15.68;;;9.88;;
75894;SDS011;64573;50.328;15.014;2023-04-15T04:05:42;13.30;;;8.38;;
75894;SDS011;64573;50.328;15.014;2023-04-15T04:08:08;13.98;;;8.50;;
75894;SDS011;64573;50.328;15.014;2023-04-15T04:10:34;12.93;;;8.32;;
75894;SDS011;64573;50.328;15.014;2023-04-15T04:12:59;14.27;;;8.68;;
75894;SDS011;64573;50.328;15.014;2023-04-15T04:15:25;11.50;;;7.68;;
75894;SDS011;64573;50.328;15.014;2023-04-15T04:17:51;12.27;;;7.78;;
75894;SDS011;64573;50.328;15.014;2023-04-15T04:20:16;13.18;;;8.70;;
75894;SDS011;64573;50.328;15.014;2023-04-15T04:25:10;13.55;;;8.70;;
75894;SDS011;64573;50.328;15.014;2023-04-15T04:27:36;14.55;;;8.57;;
75894;SDS011;64573;50.328;15.014;2023-04-15T04:30:01;14.88;;;8.65;;
75894;SDS011;64573;50.328;15.014;2023-04-15T04:32:27;14.00;;;8.98;;
75894;SDS011;64573;50.328;15.014;2023-04-15T04:34:52;11.10;;;7.28;;
75894;SDS011;64573;50.328;15.014;2023-04-15T04:37:18;11.20;;;7.90;;
75894;SDS011;64573;50.328;15.014;2023-04-15T04:39:43;10.80;;;7.30;;
75894;SDS011;64573;50.328;15.014;2023-04-15T04:42:08;9.80;;;7.05;;
75894;SDS011;64573;50.328;15.014;2023-04-15T04:44:34;9.52;;;6.85;;
75894;SDS011;64573;50.328;15.014;2023-04-15T04:49:27;8.60;;;6.18;;
75894;SDS011;64573;50.328;15.014;2023-04-15T04:51:52;8.18;;;5.78;;
75894;SDS011;64573;50.328;15.014;2023-04-15T04:54:18;7.18;;;5.40;;
75894;SDS011;64573;50.328;15.014;2023-04-15T04:56:43;8.82;;;5.90;;
75894;SDS011;64573;50.328;15.014;2023-04-15T04:59:09;5.90;;;4.43;;
75894;SDS011;64573;50.328;15.014;2023-04-15T05:03:59;5.20;;;4.30;;
75894;SDS011;64573;50.328;15.014;2023-04-15T05:06:25;5.10;;;4.00;;
75894;SDS011;64573;50.328;15.014;2023-04-15T05:08:50;5.28;;;3.95;;
75894;SDS011;64573;50.328;15.014;2023-04-15T05:11:15;6.60;;;3.83;;
75894;SDS011;64573;50.328;15.014;2023-04-15T05:13:41;4.10;;;3.15;;
75894;SDS011;64573;50.328;15.014;2023-04-15T05:16:06;2.92;;;2.55;;
75894;SDS011;64573;50.328;15.014;2023-04-15T05:18:32;3.03;;;2.40;;
75894;SDS011;64573;50.328;15.014;2023-04-15T05:20:57;2.80;;;2.30;;
75894;SDS011;64573;50.328;15.014;2023-04-15T05:23:23;4.00;;;2.47;;
75894;SDS011;64573;50.328;15.014;2023-04-15T05:25:48;2.90;;;2.20;;
75894;SDS011;64573;50.328;15.014;2023-04-15T05:28:14;2.47;;;2.08;;
75894;SDS011;64573;50.328;15.014;2023-04-15T05:30:39;2.40;;;1.90;;
75894;SDS011;64573;50.328;15.014;2023-04-15T05:33:05;2.00;;;1.58;;
75894;SDS011;64573;50.328;15.014;2023-04-15T05:35:30;1.40;;;1.30;;
75894;SDS011;64573;50.328;15.014;2023-04-15T05:37:55;1.58;;;1.40;;
75894;SDS011;64573;50.328;15.014;2023-04-15T05:40:21;1.10;;;1.00;;
75894;SDS011;64573;50.328;15.014;2023-04-15T05:45:16;1.33;;;0.88;;
75894;SDS011;64573;50.328;15.014;2023-04-15T05:47:41;1.33;;;0.90;;
75894;SDS011;64573;50.328;15.014;2023-04-15T05:50:07;1.40;;;1.00;;
75894;SDS011;64573;50.328;15.014;2023-04-15T05:52:33;1.45;;;0.88;;
75894;SDS011;64573;50.328;15.014;2023-04-15T05:54:58;0.68;;;0.63;;
75894;SDS011;64573;50.328;15.014;2023-04-15T05:57:24;4.65;;;1.90;;
75894;SDS011;64573;50.328;15.014;2023-04-15T05:59:49;2.85;;;1.33;;
75894;SDS011;64573;50.328;15.014;2023-04-15T06:02:18;2.13;;;0.95;;
75894;SDS011;64573;50.328;15.014;2023-04-15T06:04:43;0.60;;;0.60;;
75894;SDS011;64573;50.328;15.014;2023-04-15T06:07:08;0.50;;;0.50;;
75894;SDS011;64573;50.328;15.014;2023-04-15T06:09:34;0.40;;;0.40;;
75894;SDS011;64573;50.328;15.014;2023-04-15T06:12:00;0.90;;;0.77;;
75894;SDS011;64573;50.328;15.014;2023-04-15T06:14:26;1.90;;;1.30;;
75894;SDS011;64573;50.328;15.014;2023-04-15T06:16:51;1.40;;;0.90;;
75894;SDS011;64573;50.328;15.014;2023-04-15T06:19:17;0.93;;;0.70;;
75894;SDS011;64573;50.328;15.014;2023-04-15T06:21:43;0.80;;;0.80;;
75894;SDS011;64573;50.328;15.014;2023-04-15T06:24:08;0.60;;;0.60;;
75894;SDS011;64573;50.328;15.014;2023-04-15T06:26:33;1.67;;;0.70;;
75894;SDS011;64573;50.328;15.014;2023-04-15T06:28:59;0.50;;;0.50;;
75894;SDS011;64573;50.328;15.014;2023-04-15T06:31:24;0.85;;;0.70;;
75894;SDS011;64573;50.328;15.014;2023-04-15T06:33:50;0.50;;;0.50;;
75894;SDS011;64573;50.328;15.014;2023-04-15T06:36:15;0.40;;;0.40;;
75894;SDS011;64573;50.328;15.014;2023-04-15T06:38:41;0.50;;;0.50;;
75894;SDS011;64573;50.328;15.014;2023-04-15T06:41:06;0.80;;;0.80;;
75894;SDS011;64573;50.328;15.014;2023-04-15T06:43:31;1.15;;;0.95;;
75894;SDS011;64573;50.328;15.014;2023-04-15T06:45:57;1.38;;;0.80;;
75894;SDS011;64573;50.328;15.014;2023-04-15T06:48:22;0.80;;;0.70;;
75894;SDS011;64573;50.328;15.014;2023-04-15T06:50:48;0.80;;;0.80;;
75894;SDS011;64573;50.328;15.014;2023-04-15T06:53:14;0.90;;;0.70;;
75894;SDS011;64573;50.328;15.014;2023-04-15T06:55:39;2.63;;;0.90;;
75894;SDS011;64573;50.328;15.014;2023-04-15T06:58:05;0.85;;;0.80;;
75894;SDS011;64573;50.328;15.014;2023-04-15T07:00:31;1.30;;;0.98;;
75894;SDS011;64573;50.328;15.014;2023-04-15T07:02:57;1.15;;;1.00;;
75894;SDS011;64573;50.328;15.014;2023-04-15T07:05:24;1.17;;;1.08;;
75894;SDS011;64573;50.328;15.014;2023-04-15T07:07:53;1.10;;;0.90;;
75894;SDS011;64573;50.328;15.014;2023-04-15T07:10:18;1.42;;;1.05;;
75894;SDS011;64573;50.328;15.014;2023-04-15T07:12:44;1.15;;;0.80;;
75894;SDS011;64573;50.328;15.014;2023-04-15T07:15:10;0.88;;;0.80;;
75894;SDS011;64573;50.328;15.014;2023-04-15T07:17:36;1.23;;;0.88;;
75894;SDS011;64573;50.328;15.014;2023-04-15T07:20:01;1.00;;;0.90;;
75894;SDS011;64573;50.328;15.014;2023-04-15T07:22:29;0.77;;;0.70;;
75894;SDS011;64573;50.328;15.014;2023-04-15T07:24:54;1.08;;;0.95;;
75894;SDS011;64573;50.328;15.014;2023-04-15T07:27:19;1.27;;;1.00;;
75894;SDS011;64573;50.328;15.014;2023-04-15T07:29:45;1.33;;;0.80;;
75894;SDS011;64573;50.328;15.014;2023-04-15T07:32:10;1.33;;;1.00;;
75894;SDS011;64573;50.328;15.014;2023-04-15T07:34:36;1.15;;;1.02;;
75894;SDS011;64573;50.328;15.014;2023-04-15T07:37:03;1.30;;;1.20;;
75894;SDS011;64573;50.328;15.014;2023-04-15T07:39:29;1.10;;;1.00;;
75894;SDS011;64573;50.328;15.014;2023-04-15T07:41:55;1.50;;;1.00;;
75894;SDS011;64573;50.328;15.014;2023-04-15T07:44:20;1.45;;;1.17;;
75894;SDS011;64573;50.328;15.014;2023-04-15T07:46:46;0.90;;;0.90;;
75894;SDS011;64573;50.328;15.014;2023-04-15T07:49:11;1.10;;;1.00;;
75894;SDS011;64573;50.328;15.014;2023-04-15T07:51:37;2.08;;;1.05;;
75894;SDS011;64573;50.328;15.014;2023-04-15T07:54:02;1.67;;;1.15;;
75894;SDS011;64573;50.328;15.014;2023-04-15T07:56:28;1.23;;;1.00;;
75894;SDS011;64573;50.328;15.014;2023-04-15T07:58:53;1.27;;;1.00;;
75894;SDS011;64573;50.328;15.014;2023-04-15T08:01:19;1.10;;;1.00;;
75894;SDS011;64573;50.328;15.014;2023-04-15T08:03:45;1.65;;;1.20;;
75894;SDS011;64573;50.328;15.014;2023-04-15T08:06:10;1.38;;;1.05;;
75894;SDS011;64573;50.328;15.014;2023-04-15T08:08:36;1.15;;;0.98;;
75894;SDS011;64573;50.328;15.014;2023-04-15T08:11:01;1.23;;;1.00;;
75894;SDS011;64573;50.328;15.014;2023-04-15T08:13:27;1.20;;;1.10;;
75894;SDS011;64573;50.328;15.014;2023-04-15T08:15:56;1.15;;;0.90;;
75894;SDS011;64573;50.328;15.014;2023-04-15T08:18:45;1.20;;;0.93;;
75894;SDS011;64573;50.328;15.014;2023-04-15T08:21:11;1.60;;;1.20;;
75894;SDS011;64573;50.328;15.014;2023-04-15T08:23:37;0.98;;;0.80;;
75894;SDS011;64573;50.328;15.014;2023-04-15T08:26:03;1.58;;;1.10;;
75894;SDS011;64573;50.328;15.014;2023-04-15T08:28:28;1.58;;;1.20;;
75894;SDS011;64573;50.328;15.014;2023-04-15T08:30:54;1.77;;;1.30;;
75894;SDS011;64573;50.328;15.014;2023-04-15T08:33:19;1.55;;;1.25;;
75894;SDS011;64573;50.328;15.014;2023-04-15T08:35:45;1.15;;;1.05;;
75894;SDS011;64573;50.328;15.014;2023-04-15T08:38:11;1.77;;;1.10;;
75894;SDS011;64573;50.328;15.014;2023-04-15T08:40:40;1.80;;;1.40;;
75894;SDS011;64573;50.328;15.014;2023-04-15T08:43:07;1.63;;;1.30;;
75894;SDS011;64573;50.328;15.014;2023-04-15T08:45:34;1.98;;;1.60;;
75894;SDS011;64573;50.328;15.014;2023-04-15T08:48:05;2.28;;;1.60;;
75894;SDS011;64573;50.328;15.014;2023-04-15T08:50:34;1.88;;;1.38;;
75894;SDS011;64573;50.328;15.014;2023-04-15T08:52:59;1.80;;;1.20;;
75894;SDS011;64573;50.328;15.014;2023-04-15T08:55:28;1.67;;;1.35;;
75894;SDS011;64573;50.328;15.014;2023-04-15T08:57:57;1.58;;;1.38;;
75894;SDS011;64573;50.328;15.014;2023-04-15T09:00:23;10.43;;;1.63;;
75894;SDS011;64573;50.328;15.014;2023-04-15T09:02:49;1.65;;;1.27;;
75894;SDS011;64573;50.328;15.014;2023-04-15T09:05:16;2.13;;;1.35;;
75894;SDS011;64573;50.328;15.014;2023-04-15T09:07:41;1.60;;;1.30;;
75894;SDS011;64573;50.328;15.014;2023-04-15T09:10:07;1.83;;;1.48;;
75894;SDS011;64573;50.328;15.014;2023-04-15T09:12:34;2.03;;;1.40;;
75894;SDS011;64573;50.328;15.014;2023-04-15T09:15:01;2.25;;;1.48;;
75894;SDS011;64573;50.328;15.014;2023-04-15T09:17:26;1.38;;;1.20;;
75894;SDS011;64573;50.328;15.014;2023-04-15T09:20:06;1.20;;;1.10;;
75894;SDS011;64573;50.328;15.014;2023-04-15T09:22:39;2.97;;;1.40;;
75894;SDS011;64573;50.328;15.014;2023-04-15T09:27:30;2.47;;;0.80;;
75894;SDS011;64573;50.328;15.014;2023-04-15T09:30:00;1.20;;;0.93;;
75894;SDS011;64573;50.328;15.014;2023-04-15T09:32:26;1.30;;;0.93;;
75894;SDS011;64573;50.328;15.014;2023-04-15T09:34:51;0.70;;;0.70;;
75894;SDS011;64573;50.328;15.014;2023-04-15T09:37:16;0.95;;;0.90;;
75894;SDS011;64573;50.328;15.014;2023-04-15T09:39:48;0.80;;;0.80;;
75894;SDS011;64573;50.328;15.014;2023-04-15T09:42:16;1.75;;;1.35;;
75894;SDS011;64573;50.328;15.014;2023-04-15T09:44:48;1.55;;;1.10;;
75894;SDS011;64573;50.328;15.014;2023-04-15T09:47:26;1.60;;;1.20;;
75894;SDS011;64573;50.328;15.014;2023-04-15T09:49:56;1.40;;;1.10;;
75894;SDS011;64573;50.328;15.014;2023-04-15T09:52:22;3.22;;;1.20;;
75894;SDS011;64573;50.328;15.014;2023-04-15T09:54:47;2.25;;;1.38;;
75894;SDS011;64573;50.328;15.014;2023-04-15T09:57:18;1.50;;;1.20;;
75894;SDS011;64573;50.328;15.014;2023-04-15T09:59:44;1.33;;;0.98;;
75894;SDS011;64573;50.328;15.014;2023-04-15T10:02:10;1.00;;;0.80;;
75894;SDS011;64573;50.328;15.014;2023-04-15T10:04:38;1.20;;;1.10;;
75894;SDS011;64573;50.328;15.014;2023-04-15T10:07:06;5.00;;;1.40;;
75894;SDS011;64573;50.328;15.014;2023-04-15T10:09:34;1.80;;;1.40;;
75894;SDS011;64573;50.328;15.014;2023-04-15T10:12:00;4.07;;;0.98;;
75894;SDS011;64573;50.328;15.014;2023-04-15T10:14:29;3.65;;;2.45;;
75894;SDS011;64573;50.328;15.014;2023-04-15T10:16:58;1.45;;;1.35;;
75894;SDS011;64573;50.328;15.014;2023-04-15T10:19:26;0.93;;;0.90;;
75894;SDS011;64573;50.328;15.014;2023-04-15T10:21:55;1.60;;;1.20;;
75894;SDS011;64573;50.328;15.014;2023-04-15T10:24:20;2.28;;;1.00;;
75894;SDS011;64573;50.328;15.014;2023-04-15T10:26:47;0.95;;;0.80;;
75894;SDS011;64573;50.328;15.014;2023-04-15T10:29:14;1.92;;;1.05;;
75894;SDS011;64573;50.328;15.014;2023-04-15T10:31:40;1.20;;;1.00;;
75894;SDS011;64573;50.328;15.014;2023-04-15T10:34:06;1.00;;;0.90;;
75894;SDS011;64573;50.328;15.014;2023-04-15T10:38:57;1.77;;;0.80;;
75894;SDS011;64573;50.328;15.014;2023-04-15T10:41:24;1.15;;;1.00;;
75894;SDS011;64573;50.328;15.014;2023-04-15T10:43:51;1.15;;;1.05;;
75894;SDS011;64573;50.328;15.014;2023-04-15T10:46:21;1.73;;;1.00;;
75894;SDS011;64573;50.328;15.014;2023-04-15T10:49:07;0.90;;;0.80;;
75894;SDS011;64573;50.328;15.014;2023-04-15T10:51:37;1.23;;;1.00;;
75894;SDS011;64573;50.328;15.014;2023-04-15T10:54:07;1.63;;;0.90;;
75894;SDS011;64573;50.328;15.014;2023-04-15T10:56:41;0.80;;;0.73;;
75894;SDS011;64573;50.328;15.014;2023-04-15T10:59:08;1.42;;;0.90;;
75894;SDS011;64573;50.328;15.014;2023-04-15T11:17:56;1.77;;;0.93;;
75894;SDS011;64573;50.328;15.014;2023-04-15T11:20:33;1.10;;;1.00;;
75894;SDS011;64573;50.328;15.014;2023-04-15T11:22:58;1.00;;;0.90;;
75894;SDS011;64573;50.328;15.014;2023-04-15T11:25:24;1.20;;;0.90;;
75894;SDS011;64573;50.328;15.014;2023-04-15T11:27:51;0.70;;;0.70;;
75894;SDS011;64573;50.328;15.014;2023-04-15T11:30:19;1.08;;;0.80;;
75894;SDS011;64573;50.328;15.014;2023-04-15T11:32:47;1.92;;;0.73;;
75894;SDS011;64573;50.328;15.014;2023-04-15T11:35:16;1.40;;;0.95;;
75894;SDS011;64573;50.328;15.014;2023-04-15T11:37:43;2.30;;;0.75;;
75894;SDS011;64573;50.328;15.014;2023-04-15T11:40:12;2.67;;;1.75;;
75894;SDS011;64573;50.328;15.014;2023-04-15T11:42:39;2.92;;;1.60;;
75894;SDS011;64573;50.328;15.014;2023-04-15T11:45:08;4.70;;;2.88;;
75894;SDS011;64573;50.328;15.014;2023-04-15T11:47:38;1.73;;;1.40;;
75894;SDS011;64573;50.328;15.014;2023-04-15T11:50:17;1.00;;;0.90;;
75894;SDS011;64573;50.328;15.014;2023-04-15T11:52:56;2.05;;;1.20;;
75894;SDS011;64573;50.328;15.014;2023-04-15T11:55:26;2.47;;;0.70;;
75894;SDS011;64573;50.328;15.014;2023-04-15T12:03:17;4.50;;;2.72;;
75894;SDS011;64573;50.328;15.014;2023-04-15T12:11:20;1.85;;;0.95;;
75894;SDS011;64573;50.328;15.014;2023-04-15T12:13:53;2.03;;;1.20;;
75894;SDS011;64573;50.328;15.014;2023-04-15T12:16:31;2.10;;;1.08;;
75894;SDS011;64573;50.328;15.014;2023-04-15T12:18:58;1.48;;;1.08;;
75894;SDS011;64573;50.328;15.014;2023-04-15T12:21:32;1.30;;;0.90;;
75894;SDS011;64573;50.328;15.014;2023-04-15T12:24:00;1.25;;;0.90;;
75894;SDS011;64573;50.328;15.014;2023-04-15T12:26:32;2.20;;;1.30;;
75894;SDS011;64573;50.328;15.014;2023-04-15T12:29:11;3.28;;;2.10;;
75894;SDS011;64573;50.328;15.014;2023-04-15T12:31:50;1.10;;;0.90;;
75894;SDS011;64573;50.328;15.014;2023-04-15T12:34:18;1.23;;;0.80;;
75894;SDS011;64573;50.328;15.014;2023-04-15T12:36:51;3.13;;;1.73;;
75894;SDS011;64573;50.328;15.014;2023-04-15T12:39:16;4.15;;;1.50;;
75894;SDS011;64573;50.328;15.014;2023-04-15T12:41:41;1.10;;;0.90;;
75894;SDS011;64573;50.328;15.014;2023-04-15T12:44:07;1.15;;;0.82;;
75894;SDS011;64573;50.328;15.014;2023-04-15T12:46:32;2.00;;;1.20;;
75894;SDS011;64573;50.328;15.014;2023-04-15T12:48:58;1.38;;;0.90;;
75894;SDS011;64573;50.328;15.014;2023-04-15T12:51:24;2.22;;;1.48;;
75894;SDS011;64573;50.328;15.014;2023-04-15T12:53:51;8.32;;;2.58;;
75894;SDS011;64573;50.328;15.014;2023-04-15T12:56:16;3.90;;;1.65;;
75894;SDS011;64573;50.328;15.014;2023-04-15T12:58:42;1.50;;;1.00;;
75894;SDS011;64573;50.328;15.014;2023-04-15T13:01:07;1.35;;;0.80;;
75894;SDS011;64573;50.328;15.014;2023-04-15T13:03:34;2.55;;;1.08;;
75894;SDS011;64573;50.328;15.014;2023-04-15T13:05:59;1.15;;;0.93;;
75894;SDS011;64573;50.328;15.014;2023-04-15T13:08:26;1.23;;;0.90;;
75894;SDS011;64573;50.328;15.014;2023-04-15T13:10:51;1.00;;;0.80;;
75894;SDS011;64573;50.328;15.014;2023-04-15T13:13:17;0.95;;;0.82;;
75894;SDS011;64573;50.328;15.014;2023-04-15T13:15:42;1.23;;;0.90;;
75894;SDS011;64573;50.328;15.014;2023-04-15T13:18:09;1.52;;;1.08;;
75894;SDS011;64573;50.328;15.014;2023-04-15T13:20:35;0.98;;;0.88;;
75894;SDS011;64573;50.328;15.014;2023-04-15T13:23:00;1.33;;;1.00;;
75894;SDS011;64573;50.328;15.014;2023-04-15T13:25:26;3.38;;;1.90;;
75894;SDS011;64573;50.328;15.014;2023-04-15T13:27:51;1.20;;;1.00;;
75894;SDS011;64573;50.328;15.014;2023-04-15T13:30:17;0.88;;;0.73;;
75894;SDS011;64573;50.328;15.014;2023-04-15T13:32:42;1.23;;;0.95;;
75894;SDS011;64573;50.328;15.014;2023-04-15T13:35:07;1.50;;;0.98;;
75894;SDS011;64573;50.328;15.014;2023-04-15T13:37:33;1.08;;;0.82;;
75894;SDS011;64573;50.328;15.014;2023-04-15T13:39:58;1.20;;;1.00;;
75894;SDS011;64573;50.328;15.014;2023-04-15T13:42:24;0.70;;;0.70;;
75894;SDS011;64573;50.328;15.014;2023-04-15T13:44:50;2.00;;;1.20;;
75894;SDS011;64573;50.328;15.014;2023-04-15T13:47:15;2.50;;;1.55;;
75894;SDS011;64573;50.328;15.014;2023-04-15T13:49:41;1.00;;;0.90;;
75894;SDS011;64573;50.328;15.014;2023-04-15T13:52:07;0.88;;;0.80;;
75894;SDS011;64573;50.328;15.014;2023-04-15T13:54:33;1.10;;;0.80;;
75894;SDS011;64573;50.328;15.014;2023-04-15T13:56:58;2.05;;;1.08;;
75894;SDS011;64573;50.328;15.014;2023-04-15T13:59:23;1.92;;;1.45;;
75894;SDS011;64573;50.328;15.014;2023-04-15T14:01:49;1.83;;;1.33;;
75894;SDS011;64573;50.328;15.014;2023-04-15T14:04:14;1.33;;;1.08;;
75894;SDS011;64573;50.328;15.014;2023-04-15T14:06:39;1.02;;;0.93;;
75894;SDS011;64573;50.328;15.014;2023-04-15T14:09:05;1.63;;;1.10;;
75894;SDS011;64573;50.328;15.014;2023-04-15T14:11:30;0.88;;;0.77;;
75894;SDS011;64573;50.328;15.014;2023-04-15T14:13:56;1.17;;;0.93;;
75894;SDS011;64573;50.328;15.014;2023-04-15T14:16:21;0.90;;;0.70;;
75894;SDS011;64573;50.328;15.014;2023-04-15T14:18:46;1.02;;;0.80;;
75894;SDS011;64573;50.328;15.014;2023-04-15T14:21:12;1.60;;;1.00;;
75894;SDS011;64573;50.328;15.014;2023-04-15T14:23:37;1.63;;;0.73;;
75894;SDS011;64573;50.328;15.014;2023-04-15T14:26:03;1.00;;;0.80;;
75894;SDS011;64573;50.328;15.014;2023-04-15T14:28:28;1.40;;;0.82;;
75894;SDS011;64573;50.328;15.014;2023-04-15T14:30:53;1.05;;;0.90;;
75894;SDS011;64573;50.328;15.014;2023-04-15T14:33:19;1.33;;;1.00;;
75894;SDS011;64573;50.328;15.014;2023-04-15T14:35:44;1.25;;;0.90;;
75894;SDS011;64573;50.328;15.014;2023-04-15T14:38:10;1.10;;;1.00;;
75894;SDS011;64573;50.328;15.014;2023-04-15T14:40:35;1.00;;;0.90;;
75894;SDS011;64573;50.328;15.014;2023-04-15T14:43:01;0.90;;;0.80;;
75894;SDS011;64573;50.328;15.014;2023-04-15T14:45:27;1.10;;;0.90;;
75894;SDS011;64573;50.328;15.014;2023-04-15T14:47:54;1.85;;;1.20;;
75894;SDS011;64573;50.328;15.014;2023-04-15T14:50:19;0.90;;;0.90;;
75894;SDS011;64573;50.328;15.014;2023-04-15T14:52:45;1.10;;;1.00;;
75894;SDS011;64573;50.328;15.014;2023-04-15T14:55:11;1.50;;;1.20;;
75894;SDS011;64573;50.328;15.014;2023-04-15T14:57:37;1.45;;;1.10;;
75894;SDS011;64573;50.328;15.014;2023-04-15T15:00:04;1.98;;;1.00;;
75894;SDS011;64573;50.328;15.014;2023-04-15T15:02:31;1.73;;;1.05;;
75894;SDS011;64573;50.328;15.014;2023-04-15T15:04:57;2.17;;;0.93;;
75894;SDS011;64573;50.328;15.014;2023-04-15T15:07:23;1.42;;;1.20;;
75894;SDS011;64573;50.328;15.014;2023-04-15T15:09:48;1.77;;;1.10;;
75894;SDS011;64573;50.328;15.014;2023-04-15T15:12:14;1.60;;;1.13;;
75894;SDS011;64573;50.328;15.014;2023-04-15T15:14:40;1.33;;;1.23;;
75894;SDS011;64573;50.328;15.014;2023-04-15T15:17:05;1.70;;;1.35;;